sensor_id;sensor_type;location;lat;lon;timestamp;pressure;altitude;pressure_sealevel;temperature;humidity
58373;BME280;44177;43.356;27.672;2023-12-07T00:01:18;97851.59;;;6.59;100.00
58373;BME280;44177;43.356;27.672;2023-12-07T00:03:43;97852.50;;;6.63;100.00
58373;BME280;44177;43.356;27.672;2023-12-07T00:06:09;97848.75;;;6.55;100.00
58373;BME280;44177;43.356;27.672;2023-12-07T00:08:35;97860.97;;;6.61;100.00
58373;BME280;44177;43.356;27.672;2023-12-07T00:11:00;97863.22;;;6.59;100.00
58373;BME280;44177;43.356;27.672;2023-12-07T00:13:26;97844.31;;;6.51;100.00
58373;BME280;44177;43.356;27.672;2023-12-07T00:15:52;97853.81;;;6.57;100.00
58373;BME280;44177;43.356;27.672;2023-12-07T00:18:17;97865.34;;;6.54;100.00
58373;BME280;44177;43.356;27.672;2023-12-07T00:20:43;97866.94;;;6.55;100.00
58373;BME280;44177;43.356;27.672;2023-12-07T00:23:08;97861.34;;;6.51;100.00
58373;BME280;44177;43.356;27.672;2023-12-07T00:25:34;97858.00;;;6.54;100.00
58373;BME280;44177;43.356;27.672;2023-12-07T00:27:59;97864.34;;;6.58;100.00
58373;BME280;44177;43.356;27.672;2023-12-07T00:30:25;97865.00;;;6.55;100.00
58373;BME280;44177;43.356;27.672;2023-12-07T00:32:51;97876.03;;;6.50;100.00
58373;BME280;44177;43.356;27.672;2023-12-07T00:35:16;97875.38;;;6.53;100.00
58373;BME280;44177;43.356;27.672;2023-12-07T00:37:43;97866.94;;;6.55;100.00
58373;BME280;44177;43.356;27.672;2023-12-07T00:40:09;97869.34;;;6.47;100.00
58373;BME280;44177;43.356;27.672;2023-12-07T00:42:34;97869.03;;;6.49;100.00
58373;BME280;44177;43.356;27.672;2023-12-07T00:45:00;97866.03;;;6.42;100.00
58373;BME280;44177;43.356;27.672;2023-12-07T00:47:26;97870.78;;;6.45;100.00
58373;BME280;44177;43.356;27.672;2023-12-07T00:49:52;97863.34;;;6.42;100.00
58373;BME280;44177;43.356;27.672;2023-12-07T00:52:17;97874.91;;;6.51;100.00
58373;BME280;44177;43.356;27.672;2023-12-07T00:54:43;97872.19;;;6.51;100.00
58373;BME280;44177;43.356;27.672;2023-12-07T00:57:09;97867.56;;;6.52;100.00
58373;BME280;44177;43.356;27.672;2023-12-07T00:59:35;97873.78;;;6.52;100.00
58373;BME280;44177;43.356;27.672;2023-12-07T01:02:04;97871.41;;;6.51;100.00
58373;BME280;44177;43.356;27.672;2023-12-07T01:04:30;97872.19;;;6.51;100.00
58373;BME280;44177;43.356;27.672;2023-12-07T01:06:56;97861.06;;;6.44;100.00
58373;BME280;44177;43.356;27.672;2023-12-07T01:09:22;97868.56;;;6.47;100.00
58373;BME280;44177;43.356;27.672;2023-12-07T01:11:49;97867.63;;;6.43;100.00
58373;BME280;44177;43.356;27.672;2023-12-07T01:14:14;97862.50;;;6.50;100.00
58373;BME280;44177;43.356;27.672;2023-12-07T01:16:40;97835.84;;;6.22;100.00
58373;BME280;44177;43.356;27.672;2023-12-07T01:19:06;97867.44;;;6.48;100.00
58373;BME280;44177;43.356;27.672;2023-12-07T01:21:32;97855.84;;;6.39;100.00
58373;BME280;44177;43.356;27.672;2023-12-07T01:23:58;97860.00;;;6.36;100.00
58373;BME280;44177;43.356;27.672;2023-12-07T01:26:24;97863.34;;;6.42;100.00
58373;BME280;44177;43.356;27.672;2023-12-07T01:28:50;97863.47;;;6.45;100.00
58373;BME280;44177;43.356;27.672;2023-12-07T01:31:15;97854.25;;;6.38;100.00
58373;BME280;44177;43.356;27.672;2023-12-07T01:33:45;97855.19;;;6.42;100.00
58373;BME280;44177;43.356;27.672;2023-12-07T01:36:11;97844.53;;;6.37;100.00
58373;BME280;44177;43.356;27.672;2023-12-07T01:38:37;97855.69;;;6.35;100.00
58373;BME280;44177;43.356;27.672;2023-12-07T01:41:02;97864.31;;;6.37;100.00
58373;BME280;44177;43.356;27.672;2023-12-07T01:43:28;97831.38;;;6.26;100.00
58373;BME280;44177;43.356;27.672;2023-12-07T01:45:56;97835.38;;;6.20;100.00
58373;BME280;44177;43.356;27.672;2023-12-07T01:48:24;97866.22;;;6.37;100.00
58373;BME280;44177;43.356;27.672;2023-12-07T01:50:55;97856.69;;;6.30;100.00
58373;BME280;44177;43.356;27.672;2023-12-07T01:53:23;97868.47;;;6.35;100.00
58373;BME280;44177;43.356;27.672;2023-12-07T01:55:51;97861.75;;;6.32;100.00
58373;BME280;44177;43.356;27.672;2023-12-07T01:58:17;97874.66;;;6.35;100.00
58373;BME280;44177;43.356;27.672;2023-12-07T02:00:45;97863.03;;;6.35;100.00
58373;BME280;44177;43.356;27.672;2023-12-07T02:03:11;97867.66;;;6.34;100.00
58373;BME280;44177;43.356;27.672;2023-12-07T02:05:37;97872.28;;;6.34;100.00
58373;BME280;44177;43.356;27.672;2023-12-07T02:08:07;97872.66;;;6.23;100.00
58373;BME280;44177;43.356;27.672;2023-12-07T02:10:33;97876.47;;;6.22;100.00
58373;BME280;44177;43.356;27.672;2023-12-07T02:12:58;97858.25;;;6.02;100.00
58373;BME280;44177;43.356;27.672;2023-12-07T02:15:24;97860.47;;;5.99;100.00
58373;BME280;44177;43.356;27.672;2023-12-07T02:18:08;97848.69;;;5.87;100.00
58373;BME280;44177;43.356;27.672;2023-12-07T02:20:44;97873.38;;;5.94;100.00
58373;BME280;44177;43.356;27.672;2023-12-07T02:23:14;97866.50;;;5.96;100.00
58373;BME280;44177;43.356;27.672;2023-12-07T02:28:45;97862.22;;;5.95;100.00
58373;BME280;44177;43.356;27.672;2023-12-07T02:31:10;97855.56;;;5.84;100.00
58373;BME280;44177;43.356;27.672;2023-12-07T02:33:36;97875.91;;;5.90;100.00
58373;BME280;44177;43.356;27.672;2023-12-07T02:36:02;97877.50;;;5.91;100.00
58373;BME280;44177;43.356;27.672;2023-12-07T02:38:28;97870.50;;;5.90;100.00
58373;BME280;44177;43.356;27.672;2023-12-07T02:40:54;97865.47;;;5.80;100.00
58373;BME280;44177;43.356;27.672;2023-12-07T02:43:22;97877.69;;;5.77;100.00
58373;BME280;44177;43.356;27.672;2023-12-07T02:45:48;97881.38;;;5.73;100.00
58373;BME280;44177;43.356;27.672;2023-12-07T02:48:14;97878.06;;;5.67;100.00
58373;BME280;44177;43.356;27.672;2023-12-07T02:50:39;97872.34;;;5.60;100.00
58373;BME280;44177;43.356;27.672;2023-12-07T02:53:05;97866.31;;;5.54;100.00
58373;BME280;44177;43.356;27.672;2023-12-07T02:55:31;97868.34;;;5.57;100.00
58373;BME280;44177;43.356;27.672;2023-12-07T02:57:56;97864.88;;;5.48;100.00
58373;BME280;44177;43.356;27.672;2023-12-07T03:00:22;97873.31;;;5.46;100.00
58373;BME280;44177;43.356;27.672;2023-12-07T03:02:47;97873.31;;;5.46;100.00
58373;BME280;44177;43.356;27.672;2023-12-07T03:05:16;97876.97;;;5.42;100.00
58373;BME280;44177;43.356;27.672;2023-12-07T03:07:42;97880.78;;;5.41;100.00
58373;BME280;44177;43.356;27.672;2023-12-07T03:10:07;97877.16;;;5.36;100.00
58373;BME280;44177;43.356;27.672;2023-12-07T03:12:33;97876.84;;;5.29;100.00
58373;BME280;44177;43.356;27.672;2023-12-07T03:14:58;97880.16;;;5.26;100.00
58373;BME280;44177;43.356;27.672;2023-12-07T03:17:24;97874.75;;;5.26;100.00
58373;BME280;44177;43.356;27.672;2023-12-07T03:19:49;97884.78;;;5.26;100.00
58373;BME280;44177;43.356;27.672;2023-12-07T03:22:15;97887.00;;;5.24;100.00
58373;BME280;44177;43.356;27.672;2023-12-07T03:24:50;97819.59;;;4.74;100.00
58373;BME280;44177;43.356;27.672;2023-12-07T03:27:15;97882.56;;;5.10;100.00
58373;BME280;44177;43.356;27.672;2023-12-07T03:29:41;97888.75;;;5.11;100.00
58373;BME280;44177;43.356;27.672;2023-12-07T03:32:07;97881.75;;;5.10;100.00
58373;BME280;44177;43.356;27.672;2023-12-07T03:34:32;97888.59;;;5.07;100.00
58373;BME280;44177;43.356;27.672;2023-12-07T03:36:58;97870.16;;;4.92;100.00
58373;BME280;44177;43.356;27.672;2023-12-07T03:39:23;97890.66;;;5.01;100.00
58373;BME280;44177;43.356;27.672;2023-12-07T03:41:50;97879.19;;;4.87;100.00
58373;BME280;44177;43.356;27.672;2023-12-07T03:44:16;97892.59;;;4.92;100.00
58373;BME280;44177;43.356;27.672;2023-12-07T03:46:41;97893.19;;;4.89;100.00
58373;BME280;44177;43.356;27.672;2023-12-07T03:49:07;97889.84;;;4.83;100.00
58373;BME280;44177;43.356;27.672;2023-12-07T03:51:32;97891.13;;;4.77;100.00
58373;BME280;44177;43.356;27.672;2023-12-07T03:53:59;97890.94;;;4.73;100.00
58373;BME280;44177;43.356;27.672;2023-12-07T03:56:26;97889.34;;;4.72;100.00
58373;BME280;44177;43.356;27.672;2023-12-07T03:58:52;97890.78;;;4.70;100.00
58373;BME280;44177;43.356;27.672;2023-12-07T04:01:21;97893.31;;;4.66;100.00
58373;BME280;44177;43.356;27.672;2023-12-07T04:03:48;97893.81;;;4.68;100.00
58373;BME280;44177;43.356;27.672;2023-12-07T04:06:14;97895.53;;;4.64;100.00
58373;BME280;44177;43.356;27.672;2023-12-07T04:08:39;97889.81;;;4.57;100.00
58373;BME280;44177;43.356;27.672;2023-12-07T04:11:05;97905.69;;;4.58;100.00
58373;BME280;44177;43.356;27.672;2023-12-07T04:13:31;97890.56;;;4.49;100.00
58373;BME280;44177;43.356;27.672;2023-12-07T04:15:56;97898.69;;;4.49;100.00
58373;BME280;44177;43.356;27.672;2023-12-07T04:18:22;97906.00;;;4.48;100.00
58373;BME280;44177;43.356;27.672;2023-12-07T04:20:47;97894.84;;;4.41;100.00
58373;BME280;44177;43.356;27.672;2023-12-07T04:23:13;97904.22;;;4.43;100.00
58373;BME280;44177;43.356;27.672;2023-12-07T04:25:38;97909.13;;;4.41;100.00
58373;BME280;44177;43.356;27.672;2023-12-07T04:28:04;97889.56;;;4.27;100.00
58373;BME280;44177;43.356;27.672;2023-12-07T04:30:29;97908.19;;;4.37;100.00
58373;BME280;44177;43.356;27.672;2023-12-07T04:32:55;97909.28;;;4.36;100.00
58373;BME280;44177;43.356;27.672;2023-12-07T04:35:20;97898.09;;;4.20;100.00
58373;BME280;44177;43.356;27.672;2023-12-07T04:37:47;97918.44;;;4.26;100.00
58373;BME280;44177;43.356;27.672;2023-12-07T04:40:12;97913.84;;;4.27;100.00
58373;BME280;44177;43.356;27.672;2023-12-07T04:42:38;97912.75;;;4.28;100.00
58373;BME280;44177;43.356;27.672;2023-12-07T04:45:04;97911.59;;;4.20;100.00
58373;BME280;44177;43.356;27.672;2023-12-07T04:47:29;97914.78;;;4.22;100.00
58373;BME280;44177;43.356;27.672;2023-12-07T04:49:55;97902.22;;;4.18;100.00
58373;BME280;44177;43.356;27.672;2023-12-07T04:52:20;97864.00;;;3.93;100.00
58373;BME280;44177;43.356;27.672;2023-12-07T04:54:46;97906.34;;;4.15;100.00
58373;BME280;44177;43.356;27.672;2023-12-07T04:57:11;97915.88;;;4.13;100.00
58373;BME280;44177;43.356;27.672;2023-12-07T04:59:37;97915.69;;;4.09;100.00
58373;BME280;44177;43.356;27.672;2023-12-07T05:02:02;97919.31;;;4.04;100.00
58373;BME280;44177;43.356;27.672;2023-12-07T05:04:28;97922.97;;;4.08;100.00
58373;BME280;44177;43.356;27.672;2023-12-07T05:06:54;97927.91;;;4.06;100.00
58373;BME280;44177;43.356;27.672;2023-12-07T05:09:19;97926.00;;;4.07;100.00
58373;BME280;44177;43.356;27.672;2023-12-07T05:11:45;97928.16;;;3.96;100.00
58373;BME280;44177;43.356;27.672;2023-12-07T05:14:11;97910.63;;;3.85;100.00
58373;BME280;44177;43.356;27.672;2023-12-07T05:16:36;97916.88;;;3.94;100.00
58373;BME280;44177;43.356;27.672;2023-12-07T05:19:02;97910.28;;;3.77;100.00
58373;BME280;44177;43.356;27.672;2023-12-07T05:21:28;97933.22;;;3.89;100.00
58373;BME280;44177;43.356;27.672;2023-12-07T05:23:53;97888.16;;;3.67;100.00
58373;BME280;44177;43.356;27.672;2023-12-07T05:26:19;97891.16;;;3.65;100.00
58373;BME280;44177;43.356;27.672;2023-12-07T05:28:46;97919.81;;;3.84;100.00
58373;BME280;44177;43.356;27.672;2023-12-07T05:31:18;97929.22;;;3.86;100.00
58373;BME280;44177;43.356;27.672;2023-12-07T05:33:44;97925.84;;;3.81;100.00
58373;BME280;44177;43.356;27.672;2023-12-07T05:36:09;97919.47;;;3.76;100.00
58373;BME280;44177;43.356;27.672;2023-12-07T05:38:35;97882.63;;;3.49;100.00
58373;BME280;44177;43.356;27.672;2023-12-07T05:41:01;97931.06;;;3.77;100.00
58373;BME280;44177;43.356;27.672;2023-12-07T05:43:26;97934.56;;;3.77;100.00
58373;BME280;44177;43.356;27.672;2023-12-07T05:45:52;97910.50;;;3.67;100.00
58373;BME280;44177;43.356;27.672;2023-12-07T05:48:17;97933.31;;;3.84;100.00
58373;BME280;44177;43.356;27.672;2023-12-07T05:50:43;97937.63;;;3.85;100.00
58373;BME280;44177;43.356;27.672;2023-12-07T05:53:08;97937.50;;;3.90;100.00
58373;BME280;44177;43.356;27.672;2023-12-07T05:55:34;97950.00;;;3.86;100.00
58373;BME280;44177;43.356;27.672;2023-12-07T05:58:00;97950.63;;;3.83;100.00
58373;BME280;44177;43.356;27.672;2023-12-07T06:00:25;97950.31;;;3.84;100.00
58373;BME280;44177;43.356;27.672;2023-12-07T06:02:51;97942.47;;;3.74;100.00
58373;BME280;44177;43.356;27.672;2023-12-07T06:05:17;97952.34;;;3.78;100.00
58373;BME280;44177;43.356;27.672;2023-12-07T06:07:42;97943.88;;;3.71;100.00
58373;BME280;44177;43.356;27.672;2023-12-07T06:10:08;97912.22;;;3.54;100.00
58373;BME280;44177;43.356;27.672;2023-12-07T06:12:34;97956.47;;;3.76;100.00
58373;BME280;44177;43.356;27.672;2023-12-07T06:15:00;97965.84;;;3.78;100.00
58373;BME280;44177;43.356;27.672;2023-12-07T06:17:25;97928.38;;;3.54;100.00
58373;BME280;44177;43.356;27.672;2023-12-07T06:19:51;97958.97;;;3.72;100.00
58373;BME280;44177;43.356;27.672;2023-12-07T06:22:16;97966.16;;;3.77;100.00
58373;BME280;44177;43.356;27.672;2023-12-07T06:24:42;97979.31;;;3.78;100.00
58373;BME280;44177;43.356;27.672;2023-12-07T06:27:08;97973.75;;;3.75;100.00
58373;BME280;44177;43.356;27.672;2023-12-07T06:29:35;97975.16;;;3.72;100.00
58373;BME280;44177;43.356;27.672;2023-12-07T06:32:00;97971.84;;;3.75;100.00
58373;BME280;44177;43.356;27.672;2023-12-07T06:34:26;97980.56;;;3.72;100.00
58373;BME280;44177;43.356;27.672;2023-12-07T06:36:53;97974.25;;;3.77;100.00
58373;BME280;44177;43.356;27.672;2023-12-07T06:39:18;97971.66;;;3.72;100.00
58373;BME280;44177;43.356;27.672;2023-12-07T06:41:44;97974.53;;;3.75;100.00
58373;BME280;44177;43.356;27.672;2023-12-07T06:44:09;97975.03;;;3.77;100.00
58373;BME280;44177;43.356;27.672;2023-12-07T06:46:35;97976.63;;;3.78;100.00
58373;BME280;44177;43.356;27.672;2023-12-07T06:49:01;97954.69;;;3.71;100.00
58373;BME280;44177;43.356;27.672;2023-12-07T06:51:26;97966.25;;;3.72;100.00
58373;BME280;44177;43.356;27.672;2023-12-07T06:53:52;97979.19;;;3.84;100.00
58373;BME280;44177;43.356;27.672;2023-12-07T06:56:17;97981.25;;;3.78;100.00
58373;BME280;44177;43.356;27.672;2023-12-07T06:58:43;97995.38;;;3.84;100.00
58373;BME280;44177;43.356;27.672;2023-12-07T07:01:08;97973.88;;;3.70;100.00
58373;BME280;44177;43.356;27.672;2023-12-07T07:03:34;97945.22;;;3.37;100.00
58373;BME280;44177;43.356;27.672;2023-12-07T07:06:00;98004.22;;;3.75;100.00
58373;BME280;44177;43.356;27.672;2023-12-07T07:08:26;98004.72;;;3.77;100.00
58373;BME280;44177;43.356;27.672;2023-12-07T07:10:51;97999.81;;;3.79;100.00
58373;BME280;44177;43.356;27.672;2023-12-07T07:13:17;98002.38;;;3.85;100.00
58373;BME280;44177;43.356;27.672;2023-12-07T07:15:44;97992.22;;;3.82;100.00
58373;BME280;44177;43.356;27.672;2023-12-07T07:18:10;98003.97;;;3.86;100.00
58373;BME280;44177;43.356;27.672;2023-12-07T07:20:36;97998.81;;;3.75;100.00
58373;BME280;44177;43.356;27.672;2023-12-07T07:23:01;98015.78;;;3.90;100.00
58373;BME280;44177;43.356;27.672;2023-12-07T07:25:27;98023.38;;;3.88;100.00
58373;BME280;44177;43.356;27.672;2023-12-07T07:27:53;98020.34;;;3.89;100.00
58373;BME280;44177;43.356;27.672;2023-12-07T07:30:22;98026.19;;;3.83;100.00
58373;BME280;44177;43.356;27.672;2023-12-07T07:32:48;98022.88;;;3.86;100.00
58373;BME280;44177;43.356;27.672;2023-12-07T07:35:14;98021.28;;;3.85;100.00
58373;BME280;44177;43.356;27.672;2023-12-07T07:37:40;98012.72;;;3.83;100.00
58373;BME280;44177;43.356;27.672;2023-12-07T07:40:07;98005.81;;;3.76;100.00
58373;BME280;44177;43.356;27.672;2023-12-07T07:42:33;98017.66;;;3.89;100.00
58373;BME280;44177;43.356;27.672;2023-12-07T07:44:59;98020.91;;;3.77;100.00
58373;BME280;44177;43.356;27.672;2023-12-07T07:47:24;98022.38;;;3.84;100.00
58373;BME280;44177;43.356;27.672;2023-12-07T07:49:50;98019.56;;;3.89;100.00
58373;BME280;44177;43.356;27.672;2023-12-07T07:52:15;97982.88;;;3.65;100.00
58373;BME280;44177;43.356;27.672;2023-12-07T07:54:42;98013.13;;;3.99;100.00
58373;BME280;44177;43.356;27.672;2023-12-07T07:57:07;98017.09;;;4.01;100.00
58373;BME280;44177;43.356;27.672;2023-12-07T07:59:33;98021.72;;;4.01;100.00
58373;BME280;44177;43.356;27.672;2023-12-07T08:01:58;98027.16;;;4.09;100.00
58373;BME280;44177;43.356;27.672;2023-12-07T08:04:24;98027.13;;;4.01;100.00
58373;BME280;44177;43.356;27.672;2023-12-07T08:06:49;98035.31;;;3.95;100.00
58373;BME280;44177;43.356;27.672;2023-12-07T08:09:15;98029.63;;;3.74;100.00
58373;BME280;44177;43.356;27.672;2023-12-07T08:11:40;98041.16;;;3.89;100.00
58373;BME280;44177;43.356;27.672;2023-12-07T08:14:06;98047.97;;;3.86;100.00
58373;BME280;44177;43.356;27.672;2023-12-07T08:16:32;98037.00;;;3.83;100.00
58373;BME280;44177;43.356;27.672;2023-12-07T08:18:58;98044.31;;;3.68;100.00
58373;BME280;44177;43.356;27.672;2023-12-07T08:21:25;98046.41;;;3.71;100.00
58373;BME280;44177;43.356;27.672;2023-12-07T08:23:51;98039.91;;;3.72;100.00
58373;BME280;44177;43.356;27.672;2023-12-07T08:26:17;98046.59;;;3.75;100.00
58373;BME280;44177;43.356;27.672;2023-12-07T08:28:42;98041.44;;;3.64;100.00
58373;BME280;44177;43.356;27.672;2023-12-07T08:31:08;98051.63;;;3.68;100.00
58373;BME280;44177;43.356;27.672;2023-12-07T08:33:34;98048.00;;;3.72;100.00
58373;BME280;44177;43.356;27.672;2023-12-07T08:36:00;98044.69;;;3.75;100.00
58373;BME280;44177;43.356;27.672;2023-12-07T08:38:26;98053.22;;;3.69;100.00
58373;BME280;44177;43.356;27.672;2023-12-07T08:40:52;98041.88;;;3.58;100.00
58373;BME280;44177;43.356;27.672;2023-12-07T08:43:21;98045.91;;;3.69;100.00
58373;BME280;44177;43.356;27.672;2023-12-07T08:45:51;98048.84;;;3.59;100.00
58373;BME280;44177;43.356;27.672;2023-12-07T08:48:17;98049.84;;;3.63;100.00
58373;BME280;44177;43.356;27.672;2023-12-07T08:50:43;98048.59;;;3.69;100.00
58373;BME280;44177;43.356;27.672;2023-12-07T08:53:08;98054.44;;;3.62;100.00
58373;BME280;44177;43.356;27.672;2023-12-07T08:55:34;98057.41;;;3.61;100.00
58373;BME280;44177;43.356;27.672;2023-12-07T08:57:59;98043.66;;;3.62;100.00
58373;BME280;44177;43.356;27.672;2023-12-07T09:00:26;98050.22;;;3.70;100.00
58373;BME280;44177;43.356;27.672;2023-12-07T09:02:52;98056.81;;;3.64;100.00
58373;BME280;44177;43.356;27.672;2023-12-07T09:05:17;98043.22;;;3.69;100.00
58373;BME280;44177;43.356;27.672;2023-12-07T09:07:43;98053.41;;;3.72;100.00
58373;BME280;44177;43.356;27.672;2023-12-07T09:10:09;98051.22;;;3.74;100.00
58373;BME280;44177;43.356;27.672;2023-12-07T09:12:36;98046.41;;;3.71;100.00
58373;BME280;44177;43.356;27.672;2023-12-07T09:15:05;98050.03;;;3.67;100.00
58373;BME280;44177;43.356;27.672;2023-12-07T09:17:32;98050.03;;;3.67;100.00
58373;BME280;44177;43.356;27.672;2023-12-07T09:19:58;98046.34;;;3.62;100.00
58373;BME280;44177;43.356;27.672;2023-12-07T09:22:23;98042.25;;;3.65;100.00
58373;BME280;44177;43.356;27.672;2023-12-07T09:24:50;98047.63;;;3.65;100.00
58373;BME280;44177;43.356;27.672;2023-12-07T09:27:16;98047.00;;;3.68;100.00
58373;BME280;44177;43.356;27.672;2023-12-07T09:29:41;98044.94;;;3.65;100.00
58373;BME280;44177;43.356;27.672;2023-12-07T09:32:07;98034.88;;;3.57;100.00
58373;BME280;44177;43.356;27.672;2023-12-07T09:34:33;98041.38;;;3.56;100.00
58373;BME280;44177;43.356;27.672;2023-12-07T09:37:11;98036.34;;;3.63;100.00
58373;BME280;44177;43.356;27.672;2023-12-07T09:39:37;98032.16;;;3.57;100.00
58373;BME280;44177;43.356;27.672;2023-12-07T09:42:02;97982.22;;;3.23;100.00
58373;BME280;44177;43.356;27.672;2023-12-07T09:44:28;98035.97;;;3.56;100.00
58373;BME280;44177;43.356;27.672;2023-12-07T09:46:54;98031.84;;;3.58;100.00
58373;BME280;44177;43.356;27.672;2023-12-07T09:49:21;98026.28;;;3.55;100.00
58373;BME280;44177;43.356;27.672;2023-12-07T09:51:46;98042.66;;;3.44;100.00
58373;BME280;44177;43.356;27.672;2023-12-07T09:54:12;98025.13;;;3.33;100.00
58373;BME280;44177;43.356;27.672;2023-12-07T09:56:38;98037.28;;;3.44;100.00
58373;BME280;44177;43.356;27.672;2023-12-07T09:59:04;98033.09;;;3.38;100.00
58373;BME280;44177;43.356;27.672;2023-12-07T10:01:31;98025.53;;;3.40;100.00
58373;BME280;44177;43.356;27.672;2023-12-07T10:04:16;98015.31;;;3.37;100.00
58373;BME280;44177;43.356;27.672;2023-12-07T10:06:44;97990.22;;;3.14;100.00
58373;BME280;44177;43.356;27.672;2023-12-07T10:09:16;98022.53;;;3.28;100.00
58373;BME280;44177;43.356;27.672;2023-12-07T10:11:44;98025.72;;;3.30;100.00
58373;BME280;44177;43.356;27.672;2023-12-07T10:14:10;98024.13;;;3.29;100.00
58373;BME280;44177;43.356;27.672;2023-12-07T10:16:36;98033.63;;;3.26;100.00
58373;BME280;44177;43.356;27.672;2023-12-07T10:19:15;98028.34;;;3.21;100.00
58373;BME280;44177;43.356;27.672;2023-12-07T10:21:44;98022.75;;;3.18;100.00
58373;BME280;44177;43.356;27.672;2023-12-07T10:24:11;98019.56;;;3.15;100.00
58373;BME280;44177;43.356;27.672;2023-12-07T10:26:39;98025.94;;;3.20;100.00
58373;BME280;44177;43.356;27.672;2023-12-07T10:29:06;98031.31;;;3.20;100.00
58373;BME280;44177;43.356;27.672;2023-12-07T10:31:32;98023.16;;;3.11;100.00
58373;BME280;44177;43.356;27.672;2023-12-07T10:34:00;98022.97;;;3.07;100.00
58373;BME280;44177;43.356;27.672;2023-12-07T10:36:26;98015.88;;;3.11;100.00
58373;BME280;44177;43.356;27.672;2023-12-07T10:38:52;98009.09;;;3.00;100.00
58373;BME280;44177;43.356;27.672;2023-12-07T10:41:20;98024.38;;;3.05;100.00
58373;BME280;44177;43.356;27.672;2023-12-07T10:43:52;98010.19;;;2.99;100.00
58373;BME280;44177;43.356;27.672;2023-12-07T10:46:20;98023.47;;;3.09;100.00
58373;BME280;44177;43.356;27.672;2023-12-07T10:48:47;98033.03;;;3.15;100.00
58373;BME280;44177;43.356;27.672;2023-12-07T10:51:18;98017.38;;;3.18;100.00
58373;BME280;44177;43.356;27.672;2023-12-07T10:53:48;98031.84;;;3.22;100.00
58373;BME280;44177;43.356;27.672;2023-12-07T10:56:53;97937.88;;;2.64;100.00
58373;BME280;44177;43.356;27.672;2023-12-07T10:59:13;98034.03;;;3.20;100.00
58373;BME280;44177;43.356;27.672;2023-12-07T11:01:39;98038.94;;;3.18;100.00
58373;BME280;44177;43.356;27.672;2023-12-07T11:04:06;98023.97;;;3.11;100.00
58373;BME280;44177;43.356;27.672;2023-12-07T11:06:33;98032.78;;;3.03;100.00
58373;BME280;44177;43.356;27.672;2023-12-07T11:09:03;98038.66;;;2.91;100.00
58373;BME280;44177;43.356;27.672;2023-12-07T11:14:08;98034.16;;;2.87;100.00
58373;BME280;44177;43.356;27.672;2023-12-07T11:16:39;98034.94;;;2.73;100.00
58373;BME280;44177;43.356;27.672;2023-12-07T11:19:44;98041.94;;;2.74;100.00
58373;BME280;44177;43.356;27.672;2023-12-07T11:22:12;98055.50;;;2.69;100.00
58373;BME280;44177;43.356;27.672;2023-12-07T11:24:55;98054.59;;;2.60;100.00
58373;BME280;44177;43.356;27.672;2023-12-07T11:27:24;98047.09;;;2.57;100.00
58373;BME280;44177;43.356;27.672;2023-12-07T11:29:50;98047.28;;;2.46;100.00
58373;BME280;44177;43.356;27.672;2023-12-07T11:32:16;98049.09;;;2.51;100.00
58373;BME280;44177;43.356;27.672;2023-12-07T11:34:43;98063.44;;;2.46;100.00
58373;BME280;44177;43.356;27.672;2023-12-07T11:37:11;98050.25;;;2.45;100.00
58373;BME280;44177;43.356;27.672;2023-12-07T11:39:37;98063.44;;;2.46;100.00
58373;BME280;44177;43.356;27.672;2023-12-07T11:42:08;98058.44;;;2.40;100.00
58373;BME280;44177;43.356;27.672;2023-12-07T11:44:37;98052.84;;;2.36;100.00
58373;BME280;44177;43.356;27.672;2023-12-07T11:47:04;98054.03;;;2.30;100.00
58373;BME280;44177;43.356;27.672;2023-12-07T11:49:31;98047.94;;;2.24;100.00
58373;BME280;44177;43.356;27.672;2023-12-07T11:52:00;98057.25;;;2.32;100.00
58373;BME280;44177;43.356;27.672;2023-12-07T11:54:26;98049.44;;;2.30;100.00
58373;BME280;44177;43.356;27.672;2023-12-07T11:56:53;98033.69;;;2.24;100.00
58373;BME280;44177;43.356;27.672;2023-12-07T11:59:19;98054.72;;;2.21;100.00
58373;BME280;44177;43.356;27.672;2023-12-07T12:01:49;98049.41;;;2.16;100.00
58373;BME280;44177;43.356;27.672;2023-12-07T12:04:15;98056.69;;;2.16;100.00
58373;BME280;44177;43.356;27.672;2023-12-07T12:06:45;98042.75;;;1.95;100.00
58373;BME280;44177;43.356;27.672;2023-12-07T12:09:14;98049.16;;;1.99;100.00
58373;BME280;44177;43.356;27.672;2023-12-07T12:11:49;98052.38;;;2.01;100.00
58373;BME280;44177;43.356;27.672;2023-12-07T12:14:16;98055.63;;;1.98;100.00
58373;BME280;44177;43.356;27.672;2023-12-07T12:16:46;98051.13;;;1.93;100.00
58373;BME280;44177;43.356;27.672;2023-12-07T12:19:12;98038.91;;;1.82;100.00
58373;BME280;44177;43.356;27.672;2023-12-07T12:21:40;98057.28;;;1.94;100.00
58373;BME280;44177;43.356;27.672;2023-12-07T12:24:07;98038.25;;;1.71;100.00
58373;BME280;44177;43.356;27.672;2023-12-07T12:26:34;98040.91;;;1.76;100.00
58373;BME280;44177;43.356;27.672;2023-12-07T12:29:03;98053.63;;;1.70;100.00
58373;BME280;44177;43.356;27.672;2023-12-07T12:31:29;98055.00;;;1.68;100.00
58373;BME280;44177;43.356;27.672;2023-12-07T12:33:55;98049.69;;;1.63;100.00
58373;BME280;44177;43.356;27.672;2023-12-07T12:36:21;98051.22;;;1.50;100.00
58373;BME280;44177;43.356;27.672;2023-12-07T12:38:52;98051.50;;;1.48;100.00
58373;BME280;44177;43.356;27.672;2023-12-07T12:41:19;98049.47;;;1.40;100.00
58373;BME280;44177;43.356;27.672;2023-12-07T12:43:45;98055.66;;;1.40;100.00
58373;BME280;44177;43.356;27.672;2023-12-07T12:46:11;98048.22;;;1.32;100.00
58373;BME280;44177;43.356;27.672;2023-12-07T12:48:37;98043.31;;;1.15;100.00
58373;BME280;44177;43.356;27.672;2023-12-07T12:51:12;98053.34;;;1.09;100.00
58373;BME280;44177;43.356;27.672;2023-12-07T12:53:45;98060.81;;;1.13;100.00